sensor_id;sensor_type;location;lat;lon;timestamp;P1;durP1;ratioP1;P2;durP2;ratioP2
12597;SDS011;6364;53.590;9.956;2023-03-01T00:01:49;19.02;;;9.52;;
12597;SDS011;6364;53.590;9.956;2023-03-01T00:04:14;19.77;;;8.93;;
12597;SDS011;6364;53.590;9.956;2023-03-01T00:06:39;21.70;;;9.32;;
12597;SDS011;6364;53.590;9.956;2023-03-01T00:09:07;18.90;;;8.82;;
12597;SDS011;6364;53.590;9.956;2023-03-01T00:11:33;21.83;;;9.27;;
12597;SDS011;6364;53.590;9.956;2023-03-01T00:13:59;20.63;;;9.13;;
12597;SDS011;6364;53.590;9.956;2023-03-01T00:16:31;21.77;;;9.40;;
12597;SDS011;6364;53.590;9.956;2023-03-01T00:18:58;17.90;;;8.38;;
12597;SDS011;6364;53.590;9.956;2023-03-01T00:21:24;17.63;;;7.97;;
12597;SDS011;6364;53.590;9.956;2023-03-01T00:23:50;15.68;;;8.35;;
12597;SDS011;6364;53.590;9.956;2023-03-01T00:26:16;18.27;;;8.57;;
12597;SDS011;6364;53.590;9.956;2023-03-01T00:28:42;19.63;;;9.05;;
12597;SDS011;6364;53.590;9.956;2023-03-01T00:31:09;18.40;;;7.90;;
12597;SDS011;6364;53.590;9.956;2023-03-01T00:33:36;17.27;;;7.30;;
12597;SDS011;6364;53.590;9.956;2023-03-01T00:36:02;17.13;;;7.88;;
12597;SDS011;6364;53.590;9.956;2023-03-01T00:38:27;17.48;;;6.88;;
12597;SDS011;6364;53.590;9.956;2023-03-01T00:40:53;17.10;;;7.57;;
12597;SDS011;6364;53.590;9.956;2023-03-01T00:43:18;19.67;;;7.47;;
12597;SDS011;6364;53.590;9.956;2023-03-01T00:45:44;15.00;;;7.90;;
12597;SDS011;6364;53.590;9.956;2023-03-01T00:48:09;14.95;;;7.72;;
12597;SDS011;6364;53.590;9.956;2023-03-01T00:50:34;14.23;;;7.47;;
12597;SDS011;6364;53.590;9.956;2023-03-01T00:53:00;15.32;;;8.10;;
12597;SDS011;6364;53.590;9.956;2023-03-01T00:55:25;12.93;;;6.75;;
12597;SDS011;6364;53.590;9.956;2023-03-01T00:57:51;15.82;;;7.53;;
12597;SDS011;6364;53.590;9.956;2023-03-01T01:00:16;17.33;;;7.80;;
12597;SDS011;6364;53.590;9.956;2023-03-01T01:02:42;16.85;;;8.02;;
12597;SDS011;6364;53.590;9.956;2023-03-01T01:05:07;11.07;;;6.70;;
12597;SDS011;6364;53.590;9.956;2023-03-01T01:07:33;13.85;;;7.18;;
12597;SDS011;6364;53.590;9.956;2023-03-01T01:09:58;13.57;;;7.50;;
12597;SDS011;6364;53.590;9.956;2023-03-01T01:12:24;14.20;;;7.07;;
12597;SDS011;6364;53.590;9.956;2023-03-01T01:14:49;15.35;;;6.88;;
12597;SDS011;6364;53.590;9.956;2023-03-01T01:17:14;14.82;;;7.35;;
12597;SDS011;6364;53.590;9.956;2023-03-01T01:19:39;14.43;;;7.45;;
12597;SDS011;6364;53.590;9.956;2023-03-01T01:22:05;19.30;;;7.82;;
12597;SDS011;6364;53.590;9.956;2023-03-01T01:24:30;12.10;;;6.97;;
12597;SDS011;6364;53.590;9.956;2023-03-01T01:29:23;16.05;;;7.97;;
12597;SDS011;6364;53.590;9.956;2023-03-01T01:31:49;20.60;;;8.23;;
12597;SDS011;6364;53.590;9.956;2023-03-01T01:34:15;14.98;;;8.18;;
12597;SDS011;6364;53.590;9.956;2023-03-01T01:36:43;17.80;;;8.60;;
12597;SDS011;6364;53.590;9.956;2023-03-01T01:39:09;15.82;;;8.45;;
12597;SDS011;6364;53.590;9.956;2023-03-01T01:41:38;17.20;;;8.38;;
12597;SDS011;6364;53.590;9.956;2023-03-01T01:46:47;17.60;;;7.63;;
12597;SDS011;6364;53.590;9.956;2023-03-01T01:51:49;15.40;;;7.47;;
12597;SDS011;6364;53.590;9.956;2023-03-01T01:54:24;14.75;;;7.38;;
12597;SDS011;6364;53.590;9.956;2023-03-01T01:56:55;18.05;;;7.13;;
12597;SDS011;6364;53.590;9.956;2023-03-01T01:59:23;12.82;;;7.40;;
12597;SDS011;6364;53.590;9.956;2023-03-01T02:01:49;20.80;;;7.82;;
12597;SDS011;6364;53.590;9.956;2023-03-01T02:04:15;17.52;;;7.72;;
12597;SDS011;6364;53.590;9.956;2023-03-01T02:06:41;17.13;;;7.53;;
12597;SDS011;6364;53.590;9.956;2023-03-01T02:09:13;16.35;;;8.15;;
12597;SDS011;6364;53.590;9.956;2023-03-01T02:11:39;12.55;;;7.20;;
12597;SDS011;6364;53.590;9.956;2023-03-01T02:14:05;14.05;;;7.30;;
12597;SDS011;6364;53.590;9.956;2023-03-01T02:16:30;14.55;;;8.23;;
12597;SDS011;6364;53.590;9.956;2023-03-01T02:18:56;17.98;;;8.68;;
12597;SDS011;6364;53.590;9.956;2023-03-01T02:24:17;13.80;;;8.30;;
12597;SDS011;6364;53.590;9.956;2023-03-01T02:26:51;14.55;;;7.95;;
12597;SDS011;6364;53.590;9.956;2023-03-01T02:29:19;16.92;;;8.60;;
12597;SDS011;6364;53.590;9.956;2023-03-01T02:31:45;13.93;;;8.30;;
12597;SDS011;6364;53.590;9.956;2023-03-01T02:34:19;16.10;;;8.70;;
12597;SDS011;6364;53.590;9.956;2023-03-01T02:36:47;14.20;;;8.57;;
12597;SDS011;6364;53.590;9.956;2023-03-01T02:39:15;13.00;;;8.38;;
12597;SDS011;6364;53.590;9.956;2023-03-01T02:41:47;14.15;;;8.27;;
12597;SDS011;6364;53.590;9.956;2023-03-01T02:44:14;15.05;;;7.68;;
12597;SDS011;6364;53.590;9.956;2023-03-01T02:46:44;14.30;;;7.53;;
12597;SDS011;6364;53.590;9.956;2023-03-01T02:49:22;11.88;;;7.45;;
12597;SDS011;6364;53.590;9.956;2023-03-01T02:51:52;12.63;;;7.57;;
12597;SDS011;6364;53.590;9.956;2023-03-01T02:54:35;12.73;;;7.10;;
12597;SDS011;6364;53.590;9.956;2023-03-01T02:57:04;16.63;;;8.03;;
12597;SDS011;6364;53.590;9.956;2023-03-01T02:59:31;15.95;;;7.57;;
12597;SDS011;6364;53.590;9.956;2023-03-01T03:04:32;14.68;;;7.32;;
12597;SDS011;6364;53.590;9.956;2023-03-01T03:06:58;12.93;;;7.18;;
12597;SDS011;6364;53.590;9.956;2023-03-01T03:09:23;10.98;;;6.53;;
12597;SDS011;6364;53.590;9.956;2023-03-01T03:11:48;11.43;;;7.35;;
12597;SDS011;6364;53.590;9.956;2023-03-01T03:14:14;13.75;;;8.00;;
12597;SDS011;6364;53.590;9.956;2023-03-01T03:16:41;12.43;;;7.75;;
12597;SDS011;6364;53.590;9.956;2023-03-01T03:19:11;12.85;;;7.57;;
12597;SDS011;6364;53.590;9.956;2023-03-01T03:21:37;12.75;;;7.28;;
12597;SDS011;6364;53.590;9.956;2023-03-01T03:24:03;12.82;;;7.68;;
12597;SDS011;6364;53.590;9.956;2023-03-01T03:26:28;14.65;;;7.88;;
12597;SDS011;6364;53.590;9.956;2023-03-01T03:28:54;12.75;;;7.82;;
12597;SDS011;6364;53.590;9.956;2023-03-01T03:31:19;12.88;;;7.25;;
12597;SDS011;6364;53.590;9.956;2023-03-01T03:33:45;13.48;;;6.85;;
12597;SDS011;6364;53.590;9.956;2023-03-01T03:36:14;15.02;;;7.30;;
12597;SDS011;6364;53.590;9.956;2023-03-01T03:38:46;11.77;;;7.60;;
12597;SDS011;6364;53.590;9.956;2023-03-01T03:41:12;17.00;;;7.10;;
12597;SDS011;6364;53.590;9.956;2023-03-01T03:43:39;13.27;;;7.15;;
12597;SDS011;6364;53.590;9.956;2023-03-01T03:46:05;12.68;;;7.18;;
12597;SDS011;6364;53.590;9.956;2023-03-01T03:48:33;11.65;;;7.00;;
12597;SDS011;6364;53.590;9.956;2023-03-01T03:50:59;14.18;;;7.38;;
12597;SDS011;6364;53.590;9.956;2023-03-01T03:53:25;15.13;;;6.97;;
12597;SDS011;6364;53.590;9.956;2023-03-01T03:55:52;11.93;;;7.10;;
12597;SDS011;6364;53.590;9.956;2023-03-01T03:58:17;11.35;;;6.85;;
12597;SDS011;6364;53.590;9.956;2023-03-01T04:00:44;14.90;;;7.55;;
12597;SDS011;6364;53.590;9.956;2023-03-01T04:03:11;13.25;;;6.88;;
12597;SDS011;6364;53.590;9.956;2023-03-01T04:05:38;14.13;;;6.60;;
12597;SDS011;6364;53.590;9.956;2023-03-01T04:08:04;10.80;;;6.60;;
12597;SDS011;6364;53.590;9.956;2023-03-01T04:10:34;12.18;;;6.90;;
12597;SDS011;6364;53.590;9.956;2023-03-01T04:13:04;16.13;;;6.60;;
12597;SDS011;6364;53.590;9.956;2023-03-01T04:15:31;11.57;;;6.78;;
12597;SDS011;6364;53.590;9.956;2023-03-01T04:17:57;9.63;;;6.60;;
12597;SDS011;6364;53.590;9.956;2023-03-01T04:20:24;11.57;;;6.10;;
12597;SDS011;6364;53.590;9.956;2023-03-01T04:22:52;9.75;;;6.57;;
12597;SDS011;6364;53.590;9.956;2023-03-01T04:25:18;10.77;;;6.20;;
12597;SDS011;6364;53.590;9.956;2023-03-01T04:27:44;11.07;;;6.35;;
12597;SDS011;6364;53.590;9.956;2023-03-01T04:30:09;11.68;;;6.13;;
12597;SDS011;6364;53.590;9.956;2023-03-01T04:32:35;11.93;;;6.38;;
12597;SDS011;6364;53.590;9.956;2023-03-01T04:35:00;12.82;;;6.07;;
12597;SDS011;6364;53.590;9.956;2023-03-01T04:37:26;9.43;;;6.15;;
12597;SDS011;6364;53.590;9.956;2023-03-01T04:39:51;10.98;;;5.88;;
12597;SDS011;6364;53.590;9.956;2023-03-01T04:42:17;10.88;;;5.85;;
12597;SDS011;6364;53.590;9.956;2023-03-01T04:44:43;13.57;;;5.65;;
12597;SDS011;6364;53.590;9.956;2023-03-01T04:47:08;9.32;;;6.35;;
12597;SDS011;6364;53.590;9.956;2023-03-01T04:49:34;11.20;;;5.53;;
12597;SDS011;6364;53.590;9.956;2023-03-01T04:51:59;9.15;;;5.88;;
12597;SDS011;6364;53.590;9.956;2023-03-01T04:54:26;10.63;;;5.85;;
12597;SDS011;6364;53.590;9.956;2023-03-01T04:56:55;8.52;;;5.45;;
12597;SDS011;6364;53.590;9.956;2023-03-01T04:59:20;9.48;;;6.07;;
12597;SDS011;6364;53.590;9.956;2023-03-01T05:01:49;10.05;;;5.38;;
12597;SDS011;6364;53.590;9.956;2023-03-01T05:04:20;8.23;;;5.55;;
12597;SDS011;6364;53.590;9.956;2023-03-01T05:06:46;8.98;;;5.70;;
12597;SDS011;6364;53.590;9.956;2023-03-01T05:09:11;10.85;;;5.70;;
12597;SDS011;6364;53.590;9.956;2023-03-01T05:11:37;11.73;;;5.20;;
12597;SDS011;6364;53.590;9.956;2023-03-01T05:14:03;9.32;;;5.63;;
12597;SDS011;6364;53.590;9.956;2023-03-01T05:16:29;9.85;;;5.00;;
12597;SDS011;6364;53.590;9.956;2023-03-01T05:18:55;15.77;;;5.65;;
12597;SDS011;6364;53.590;9.956;2023-03-01T05:21:21;11.63;;;6.00;;
12597;SDS011;6364;53.590;9.956;2023-03-01T05:23:47;10.77;;;5.90;;
12597;SDS011;6364;53.590;9.956;2023-03-01T05:26:12;13.65;;;6.28;;
12597;SDS011;6364;53.590;9.956;2023-03-01T05:28:38;9.82;;;5.80;;
12597;SDS011;6364;53.590;9.956;2023-03-01T05:31:05;11.75;;;5.93;;
12597;SDS011;6364;53.590;9.956;2023-03-01T05:33:35;11.55;;;4.70;;
12597;SDS011;6364;53.590;9.956;2023-03-01T05:36:04;8.00;;;5.07;;
12597;SDS011;6364;53.590;9.956;2023-03-01T05:38:31;11.32;;;5.88;;
12597;SDS011;6364;53.590;9.956;2023-03-01T05:40:56;10.73;;;5.53;;
12597;SDS011;6364;53.590;9.956;2023-03-01T05:43:22;17.60;;;6.00;;
12597;SDS011;6364;53.590;9.956;2023-03-01T05:45:47;9.43;;;5.35;;
12597;SDS011;6364;53.590;9.956;2023-03-01T05:48:13;11.57;;;6.32;;
12597;SDS011;6364;53.590;9.956;2023-03-01T05:50:40;7.88;;;4.60;;
12597;SDS011;6364;53.590;9.956;2023-03-01T05:53:14;10.07;;;5.60;;
12597;SDS011;6364;53.590;9.956;2023-03-01T05:55:40;12.23;;;5.55;;
12597;SDS011;6364;53.590;9.956;2023-03-01T05:58:08;9.13;;;5.18;;
12597;SDS011;6364;53.590;9.956;2023-03-01T06:00:35;16.83;;;5.70;;
12597;SDS011;6364;53.590;9.956;2023-03-01T06:03:01;11.88;;;5.53;;
12597;SDS011;6364;53.590;9.956;2023-03-01T06:05:26;18.30;;;6.40;;
12597;SDS011;6364;53.590;9.956;2023-03-01T06:07:52;11.27;;;5.68;;
12597;SDS011;6364;53.590;9.956;2023-03-01T06:10:18;11.13;;;5.45;;
12597;SDS011;6364;53.590;9.956;2023-03-01T06:12:44;13.82;;;5.68;;
12597;SDS011;6364;53.590;9.956;2023-03-01T06:15:11;14.68;;;5.40;;
12597;SDS011;6364;53.590;9.956;2023-03-01T06:17:38;10.38;;;5.15;;
12597;SDS011;6364;53.590;9.956;2023-03-01T06:20:06;15.30;;;5.30;;
12597;SDS011;6364;53.590;9.956;2023-03-01T06:22:34;10.38;;;5.85;;
12597;SDS011;6364;53.590;9.956;2023-03-01T06:24:59;10.50;;;5.82;;
12597;SDS011;6364;53.590;9.956;2023-03-01T06:27:25;11.32;;;5.53;;
12597;SDS011;6364;53.590;9.956;2023-03-01T06:29:50;11.90;;;5.47;;
12597;SDS011;6364;53.590;9.956;2023-03-01T06:32:15;13.77;;;5.28;;
12597;SDS011;6364;53.590;9.956;2023-03-01T06:34:41;16.85;;;5.40;;
12597;SDS011;6364;53.590;9.956;2023-03-01T06:37:06;11.43;;;5.60;;
12597;SDS011;6364;53.590;9.956;2023-03-01T06:39:32;9.95;;;5.10;;
12597;SDS011;6364;53.590;9.956;2023-03-01T06:41:58;11.68;;;5.53;;
12597;SDS011;6364;53.590;9.956;2023-03-01T06:44:23;11.45;;;4.90;;
12597;SDS011;6364;53.590;9.956;2023-03-01T06:46:48;21.13;;;5.00;;
12597;SDS011;6364;53.590;9.956;2023-03-01T06:49:14;14.52;;;4.88;;
12597;SDS011;6364;53.590;9.956;2023-03-01T06:51:41;10.85;;;5.15;;
12597;SDS011;6364;53.590;9.956;2023-03-01T06:54:06;10.88;;;4.72;;
12597;SDS011;6364;53.590;9.956;2023-03-01T06:56:32;15.02;;;4.97;;
12597;SDS011;6364;53.590;9.956;2023-03-01T06:58:57;18.80;;;5.97;;
12597;SDS011;6364;53.590;9.956;2023-03-01T07:01:23;11.98;;;5.28;;
12597;SDS011;6364;53.590;9.956;2023-03-01T07:03:48;20.05;;;5.70;;
12597;SDS011;6364;53.590;9.956;2023-03-01T07:06:14;37.83;;;7.45;;
12597;SDS011;6364;53.590;9.956;2023-03-01T07:08:39;28.83;;;7.10;;
12597;SDS011;6364;53.590;9.956;2023-03-01T07:11:04;34.70;;;5.97;;
12597;SDS011;6364;53.590;9.956;2023-03-01T07:13:30;20.75;;;6.60;;
12597;SDS011;6364;53.590;9.956;2023-03-01T07:15:56;22.20;;;6.13;;
12597;SDS011;6364;53.590;9.956;2023-03-01T07:18:21;19.33;;;6.40;;
12597;SDS011;6364;53.590;9.956;2023-03-01T07:20:46;17.20;;;6.35;;
12597;SDS011;6364;53.590;9.956;2023-03-01T07:23:12;18.15;;;6.35;;
12597;SDS011;6364;53.590;9.956;2023-03-01T07:25:37;16.60;;;6.00;;
12597;SDS011;6364;53.590;9.956;2023-03-01T07:28:03;17.83;;;5.90;;
12597;SDS011;6364;53.590;9.956;2023-03-01T07:30:28;25.83;;;6.75;;
12597;SDS011;6364;53.590;9.956;2023-03-01T07:32:54;16.75;;;7.20;;
12597;SDS011;6364;53.590;9.956;2023-03-01T07:35:20;15.20;;;6.88;;
12597;SDS011;6364;53.590;9.956;2023-03-01T07:37:45;16.30;;;6.70;;
12597;SDS011;6364;53.590;9.956;2023-03-01T07:40:11;15.65;;;7.13;;
12597;SDS011;6364;53.590;9.956;2023-03-01T07:42:36;15.20;;;6.22;;
12597;SDS011;6364;53.590;9.956;2023-03-01T07:45:02;10.05;;;6.30;;
12597;SDS011;6364;53.590;9.956;2023-03-01T07:47:28;13.15;;;7.45;;
12597;SDS011;6364;53.590;9.956;2023-03-01T07:49:53;12.15;;;7.68;;
12597;SDS011;6364;53.590;9.956;2023-03-01T07:52:19;11.93;;;7.57;;
12597;SDS011;6364;53.590;9.956;2023-03-01T07:54:44;13.00;;;8.23;;
12597;SDS011;6364;53.590;9.956;2023-03-01T07:57:10;13.77;;;8.73;;
12597;SDS011;6364;53.590;9.956;2023-03-01T07:59:35;18.05;;;9.68;;
12597;SDS011;6364;53.590;9.956;2023-03-01T08:02:00;17.70;;;9.93;;
12597;SDS011;6364;53.590;9.956;2023-03-01T08:04:26;16.77;;;9.50;;
12597;SDS011;6364;53.590;9.956;2023-03-01T08:06:52;15.27;;;9.70;;
12597;SDS011;6364;53.590;9.956;2023-03-01T08:09:19;17.83;;;10.88;;
12597;SDS011;6364;53.590;9.956;2023-03-01T08:11:44;23.30;;;12.77;;
12597;SDS011;6364;53.590;9.956;2023-03-01T08:14:10;19.55;;;11.85;;
12597;SDS011;6364;53.590;9.956;2023-03-01T08:16:38;19.45;;;12.65;;
12597;SDS011;6364;53.590;9.956;2023-03-01T08:19:06;26.75;;;13.73;;
12597;SDS011;6364;53.590;9.956;2023-03-01T08:21:33;22.50;;;12.73;;
12597;SDS011;6364;53.590;9.956;2023-03-01T08:24:02;20.15;;;13.07;;
12597;SDS011;6364;53.590;9.956;2023-03-01T08:26:27;22.80;;;13.57;;
12597;SDS011;6364;53.590;9.956;2023-03-01T08:28:53;21.33;;;12.52;;
12597;SDS011;6364;53.590;9.956;2023-03-01T08:33:46;22.27;;;13.35;;
12597;SDS011;6364;53.590;9.956;2023-03-01T08:36:20;21.98;;;13.00;;
12597;SDS011;6364;53.590;9.956;2023-03-01T08:38:49;20.52;;;12.57;;
12597;SDS011;6364;53.590;9.956;2023-03-01T08:41:15;20.58;;;13.48;;
12597;SDS011;6364;53.590;9.956;2023-03-01T08:43:40;19.45;;;12.70;;
12597;SDS011;6364;53.590;9.956;2023-03-01T08:46:09;23.08;;;13.70;;
12597;SDS011;6364;53.590;9.956;2023-03-01T08:48:35;24.33;;;13.77;;
12597;SDS011;6364;53.590;9.956;2023-03-01T08:51:11;23.67;;;13.80;;
12597;SDS011;6364;53.590;9.956;2023-03-01T08:53:38;24.77;;;13.73;;
12597;SDS011;6364;53.590;9.956;2023-03-01T08:56:04;21.65;;;13.93;;
12597;SDS011;6364;53.590;9.956;2023-03-01T08:58:29;21.00;;;13.60;;
12597;SDS011;6364;53.590;9.956;2023-03-01T09:00:55;27.23;;;15.05;;
12597;SDS011;6364;53.590;9.956;2023-03-01T09:03:21;47.13;;;16.08;;
12597;SDS011;6364;53.590;9.956;2023-03-01T09:05:47;24.67;;;14.25;;
12597;SDS011;6364;53.590;9.956;2023-03-01T09:08:14;21.77;;;14.23;;
12597;SDS011;6364;53.590;9.956;2023-03-01T09:10:39;24.98;;;13.90;;
12597;SDS011;6364;53.590;9.956;2023-03-01T09:13:04;24.48;;;14.23;;
12597;SDS011;6364;53.590;9.956;2023-03-01T09:15:30;22.45;;;13.55;;
12597;SDS011;6364;53.590;9.956;2023-03-01T09:17:55;24.45;;;13.68;;
12597;SDS011;6364;53.590;9.956;2023-03-01T09:20:20;25.33;;;13.73;;
12597;SDS011;6364;53.590;9.956;2023-03-01T09:22:46;19.20;;;12.93;;
12597;SDS011;6364;53.590;9.956;2023-03-01T09:25:11;26.10;;;14.80;;
12597;SDS011;6364;53.590;9.956;2023-03-01T09:27:37;22.27;;;14.13;;
12597;SDS011;6364;53.590;9.956;2023-03-01T09:30:02;21.92;;;13.15;;
12597;SDS011;6364;53.590;9.956;2023-03-01T09:32:29;24.55;;;13.90;;
12597;SDS011;6364;53.590;9.956;2023-03-01T09:34:55;20.65;;;12.75;;
12597;SDS011;6364;53.590;9.956;2023-03-01T09:39:55;17.55;;;12.00;;
12597;SDS011;6364;53.590;9.956;2023-03-01T09:42:20;22.88;;;13.13;;
12597;SDS011;6364;53.590;9.956;2023-03-01T09:47:30;23.58;;;13.13;;
12597;SDS011;6364;53.590;9.956;2023-03-01T09:52:51;19.73;;;12.52;;
12597;SDS011;6364;53.590;9.956;2023-03-01T09:55:46;20.95;;;13.25;;
12597;SDS011;6364;53.590;9.956;2023-03-01T09:58:25;22.92;;;11.88;;
12597;SDS011;6364;53.590;9.956;2023-03-01T10:00:54;21.30;;;13.32;;
12597;SDS011;6364;53.590;9.956;2023-03-01T10:03:26;25.33;;;12.95;;
12597;SDS011;6364;53.590;9.956;2023-03-01T10:08:29;22.35;;;12.77;;
12597;SDS011;6364;53.590;9.956;2023-03-01T10:11:00;18.08;;;12.00;;
12597;SDS011;6364;53.590;9.956;2023-03-01T10:14:13;18.70;;;11.82;;
12597;SDS011;6364;53.590;9.956;2023-03-01T10:17:04;17.88;;;11.13;;
12597;SDS011;6364;53.590;9.956;2023-03-01T10:19:04;21.38;;;12.90;;
12597;SDS011;6364;53.590;9.956;2023-03-01T10:21:31;18.15;;;11.35;;
12597;SDS011;6364;53.590;9.956;2023-03-01T10:24:08;20.30;;;11.10;;
12597;SDS011;6364;53.590;9.956;2023-03-01T10:26:55;19.67;;;11.45;;
12597;SDS011;6364;53.590;9.956;2023-03-01T10:29:23;16.05;;;10.30;;
12597;SDS011;6364;53.590;9.956;2023-03-01T10:31:52;18.45;;;10.52;;
12597;SDS011;6364;53.590;9.956;2023-03-01T10:34:19;17.88;;;10.27;;
12597;SDS011;6364;53.590;9.956;2023-03-01T10:37:04;17.48;;;10.77;;
12597;SDS011;6364;53.590;9.956;2023-03-01T10:39:35;16.42;;;9.35;;
12597;SDS011;6364;53.590;9.956;2023-03-01T10:42:02;13.60;;;9.43;;
12597;SDS011;6364;53.590;9.956;2023-03-01T10:44:46;14.00;;;9.05;;
12597;SDS011;6364;53.590;9.956;2023-03-01T10:47:13;13.90;;;9.13;;
12597;SDS011;6364;53.590;9.956;2023-03-01T10:50:04;13.25;;;9.27;;
12597;SDS011;6364;53.590;9.956;2023-03-01T10:55:02;22.45;;;12.55;;
12597;SDS011;6364;53.590;9.956;2023-03-01T10:57:38;18.10;;;11.88;;
12597;SDS011;6364;53.590;9.956;2023-03-01T11:00:19;20.75;;;12.07;;
12597;SDS011;6364;53.590;9.956;2023-03-01T11:05:24;17.70;;;10.70;;
12597;SDS011;6364;53.590;9.956;2023-03-01T11:07:54;18.00;;;11.23;;
12597;SDS011;6364;53.590;9.956;2023-03-01T11:10:26;18.70;;;10.80;;
12597;SDS011;6364;53.590;9.956;2023-03-01T11:13:06;15.80;;;9.15;;
12597;SDS011;6364;53.590;9.956;2023-03-01T11:15:40;13.13;;;8.30;;
12597;SDS011;6364;53.590;9.956;2023-03-01T11:18:17;11.38;;;7.95;;
12597;SDS011;6364;53.590;9.956;2023-03-01T11:20:44;10.60;;;7.00;;
12597;SDS011;6364;53.590;9.956;2023-03-01T11:23:10;13.13;;;7.10;;
12597;SDS011;6364;53.590;9.956;2023-03-01T11:25:38;10.52;;;7.38;;
12597;SDS011;6364;53.590;9.956;2023-03-01T11:28:06;9.85;;;7.30;;
12597;SDS011;6364;53.590;9.956;2023-03-01T11:30:35;11.43;;;7.28;;
12597;SDS011;6364;53.590;9.956;2023-03-01T11:35:32;10.93;;;7.05;;
12597;SDS011;6364;53.590;9.956;2023-03-01T11:38:22;11.15;;;8.15;;
12597;SDS011;6364;53.590;9.956;2023-03-01T11:43:29;11.38;;;7.82;;
12597;SDS011;6364;53.590;9.956;2023-03-01T11:54:53;10.82;;;7.82;;
12597;SDS011;6364;53.590;9.956;2023-03-01T11:56:58;9.93;;;7.50;;
12597;SDS011;6364;53.590;9.956;2023-03-01T12:07:46;8.82;;;6.43;;
12597;SDS011;6364;53.590;9.956;2023-03-01T12:12:56;9.73;;;6.40;;
12597;SDS011;6364;53.590;9.956;2023-03-01T12:18:25;9.25;;;6.70;;
12597;SDS011;6364;53.590;9.956;2023-03-01T12:26:26;7.93;;;6.18;;
12597;SDS011;6364;53.590;9.956;2023-03-01T12:42:01;7.20;;;6.00;;
12597;SDS011;6364;53.590;9.956;2023-03-01T12:44:36;7.55;;;6.07;;
12597;SDS011;6364;53.590;9.956;2023-03-01T12:47:31;6.75;;;5.90;;
12597;SDS011;6364;53.590;9.956;2023-03-01T12:50:50;7.55;;;6.55;;
12597;SDS011;6364;53.590;9.956;2023-03-01T12:53:21;7.47;;;6.60;;
12597;SDS011;6364;53.590;9.956;2023-03-01T12:55:52;7.50;;;5.88;;
12597;SDS011;6364;53.590;9.956;2023-03-01T13:01:14;6.60;;;5.90;;
12597;SDS011;6364;53.590;9.956;2023-03-01T13:12:41;6.45;;;5.40;;
12597;SDS011;6364;53.590;9.956;2023-03-01T13:21:06;7.85;;;5.90;;
12597;SDS011;6364;53.590;9.956;2023-03-01T13:23:11;7.68;;;5.72;;
12597;SDS011;6364;53.590;9.956;2023-03-01T13:31:01;7.68;;;6.30;;
12597;SDS011;6364;53.590;9.956;2023-03-01T13:35:53;8.67;;;6.33;;
12597;SDS011;6364;53.590;9.956;2023-03-01T13:41:11;6.78;;;5.97;;
12597;SDS011;6364;53.590;9.956;2023-03-01T13:43:38;9.18;;;6.30;;
12597;SDS011;6364;53.590;9.956;2023-03-01T13:46:09;8.00;;;6.43;;
12597;SDS011;6364;53.590;9.956;2023-03-01T13:48:36;7.25;;;5.97;;
12597;SDS011;6364;53.590;9.956;2023-03-01T13:51:04;8.55;;;5.95;;
12597;SDS011;6364;53.590;9.956;2023-03-01T13:53:33;8.38;;;6.10;;
12597;SDS011;6364;53.590;9.956;2023-03-01T13:56:02;8.38;;;6.38;;
12597;SDS011;6364;53.590;9.956;2023-03-01T13:58:33;8.13;;;5.75;;
12597;SDS011;6364;53.590;9.956;2023-03-01T14:01:29;10.25;;;6.50;;
12597;SDS011;6364;53.590;9.956;2023-03-01T14:03:59;10.35;;;6.57;;
12597;SDS011;6364;53.590;9.956;2023-03-01T14:06:26;8.05;;;5.70;;
12597;SDS011;6364;53.590;9.956;2023-03-01T14:09:10;7.28;;;5.47;;
12597;SDS011;6364;53.590;9.956;2023-03-01T14:11:50;9.50;;;6.57;;
12597;SDS011;6364;53.590;9.956;2023-03-01T14:14:36;8.40;;;5.88;;
12597;SDS011;6364;53.590;9.956;2023-03-01T14:20:18;8.07;;;5.37;;
12597;SDS011;6364;53.590;9.956;2023-03-01T14:22:46;6.82;;;4.97;;
12597;SDS011;6364;53.590;9.956;2023-03-01T14:25:28;8.20;;;5.72;;
12597;SDS011;6364;53.590;9.956;2023-03-01T14:33:27;13.27;;;5.63;;
12597;SDS011;6364;53.590;9.956;2023-03-01T14:36:02;8.98;;;6.03;;
12597;SDS011;6364;53.590;9.956;2023-03-01T14:38:42;11.50;;;5.50;;
12597;SDS011;6364;53.590;9.956;2023-03-01T14:41:09;8.68;;;5.45;;
12597;SDS011;6364;53.590;9.956;2023-03-01T14:43:50;11.70;;;5.93;;
12597;SDS011;6364;53.590;9.956;2023-03-01T14:46:21;10.88;;;6.40;;
12597;SDS011;6364;53.590;9.956;2023-03-01T14:48:50;18.98;;;6.47;;
12597;SDS011;6364;53.590;9.956;2023-03-01T14:51:16;11.70;;;6.20;;
12597;SDS011;6364;53.590;9.956;2023-03-01T14:53:42;11.73;;;6.45;;
12597;SDS011;6364;53.590;9.956;2023-03-01T14:56:12;9.75;;;6.10;;
12597;SDS011;6364;53.590;9.956;2023-03-01T14:58:38;14.30;;;7.18;;
12597;SDS011;6364;53.590;9.956;2023-03-01T15:01:04;11.80;;;6.75;;
12597;SDS011;6364;53.590;9.956;2023-03-01T15:03:31;11.13;;;6.63;;
12597;SDS011;6364;53.590;9.956;2023-03-01T15:06:00;12.93;;;7.00;;
12597;SDS011;6364;53.590;9.956;2023-03-01T15:08:26;14.15;;;7.15;;
12597;SDS011;6364;53.590;9.956;2023-03-01T15:13:38;12.63;;;7.18;;
12597;SDS011;6364;53.590;9.956;2023-03-01T15:16:05;11.50;;;7.18;;
12597;SDS011;6364;53.590;9.956;2023-03-01T15:18:45;13.68;;;7.63;;
12597;SDS011;6364;53.590;9.956;2023-03-01T15:21:19;12.77;;;7.97;;
12597;SDS011;6364;53.590;9.956;2023-03-01T15:23:53;14.63;;;7.35;;
12597;SDS011;6364;53.590;9.956;2023-03-01T15:29:03;12.35;;;7.50;;
12597;SDS011;6364;53.590;9.956;2023-03-01T15:31:32;14.13;;;8.07;;
12597;SDS011;6364;53.590;9.956;2023-03-01T15:39:03;15.40;;;8.77;;
12597;SDS011;6364;53.590;9.956;2023-03-01T15:41:46;13.95;;;8.32;;
12597;SDS011;6364;53.590;9.956;2023-03-01T15:46:54;13.68;;;8.52;;
12597;SDS011;6364;53.590;9.956;2023-03-01T15:49:30;17.67;;;10.63;;
12597;SDS011;6364;53.590;9.956;2023-03-01T15:52:21;17.48;;;9.82;;
12597;SDS011;6364;53.590;9.956;2023-03-01T15:54:54;17.20;;;9.95;;
12597;SDS011;6364;53.590;9.956;2023-03-01T15:57:20;19.15;;;11.00;;
12597;SDS011;6364;53.590;9.956;2023-03-01T15:59:46;18.95;;;11.43;;
12597;SDS011;6364;53.590;9.956;2023-03-01T16:02:11;18.67;;;11.25;;
12597;SDS011;6364;53.590;9.956;2023-03-01T16:04:40;23.58;;;12.02;;
12597;SDS011;6364;53.590;9.956;2023-03-01T16:07:05;21.88;;;12.40;;
12597;SDS011;6364;53.590;9.956;2023-03-01T16:09:30;21.00;;;12.18;;
12597;SDS011;6364;53.590;9.956;2023-03-01T16:11:56;17.85;;;11.15;;
12597;SDS011;6364;53.590;9.956;2023-03-01T16:14:21;23.67;;;12.85;;
12597;SDS011;6364;53.590;9.956;2023-03-01T16:16:47;23.23;;;12.82;;
12597;SDS011;6364;53.590;9.956;2023-03-01T16:19:15;23.30;;;11.95;;
12597;SDS011;6364;53.590;9.956;2023-03-01T16:21:41;23.38;;;13.02;;
12597;SDS011;6364;53.590;9.956;2023-03-01T16:24:08;19.63;;;11.88;;
12597;SDS011;6364;53.590;9.956;2023-03-01T16:26:33;23.45;;;12.30;;
12597;SDS011;6364;53.590;9.956;2023-03-01T16:28:59;19.90;;;11.82;;
12597;SDS011;6364;53.590;9.956;2023-03-01T16:31:24;20.02;;;9.32;;
12597;SDS011;6364;53.590;9.956;2023-03-01T16:33:55;19.30;;;10.35;;
12597;SDS011;6364;53.590;9.956;2023-03-01T16:36:21;17.88;;;9.32;;
12597;SDS011;6364;53.590;9.956;2023-03-01T16:38:48;14.30;;;8.75;;
12597;SDS011;6364;53.590;9.956;2023-03-01T16:41:16;14.88;;;9.32;;
12597;SDS011;6364;53.590;9.956;2023-03-01T16:43:43;17.33;;;9.20;;
12597;SDS011;6364;53.590;9.956;2023-03-01T16:46:12;14.98;;;8.77;;
12597;SDS011;6364;53.590;9.956;2023-03-01T16:48:41;15.07;;;8.55;;
12597;SDS011;6364;53.590;9.956;2023-03-01T16:51:06;15.00;;;7.90;;
12597;SDS011;6364;53.590;9.956;2023-03-01T16:53:33;13.10;;;8.25;;
12597;SDS011;6364;53.590;9.956;2023-03-01T16:56:01;14.27;;;8.80;;
12597;SDS011;6364;53.590;9.956;2023-03-01T16:58:29;15.90;;;8.20;;
12597;SDS011;6364;53.590;9.956;2023-03-01T17:00:55;15.40;;;8.93;;
12597;SDS011;6364;53.590;9.956;2023-03-01T17:03:21;13.15;;;8.43;;